sensor_id;sensor_type;location;lat;lon;timestamp;P1;durP1;ratioP1;P2;durP2;ratioP2
32826;SDS011;51059;42.058;27.986;2024-01-10T00:01:14;37.50;;;15.50;;
32826;SDS011;51059;42.058;27.986;2024-01-10T00:03:39;33.33;;;15.17;;
32826;SDS011;51059;42.058;27.986;2024-01-10T00:06:05;46.70;;;17.37;;
32826;SDS011;51059;42.058;27.986;2024-01-10T00:08:31;30.03;;;13.90;;
32826;SDS011;51059;42.058;27.986;2024-01-10T00:10:57;22.37;;;11.77;;
32826;SDS011;51059;42.058;27.986;2024-01-10T00:13:24;24.33;;;12.70;;
32826;SDS011;51059;42.058;27.986;2024-01-10T00:15:50;33.67;;;14.37;;
32826;SDS011;51059;42.058;27.986;2024-01-10T00:18:15;26.20;;;12.63;;
32826;SDS011;51059;42.058;27.986;2024-01-10T00:20:41;36.27;;;16.00;;
32826;SDS011;51059;42.058;27.986;2024-01-10T00:23:07;23.10;;;11.83;;
32826;SDS011;51059;42.058;27.986;2024-01-10T00:25:33;30.20;;;13.20;;
32826;SDS011;51059;42.058;27.986;2024-01-10T00:27:58;31.03;;;14.60;;
32826;SDS011;51059;42.058;27.986;2024-01-10T00:30:25;38.00;;;15.60;;
32826;SDS011;51059;42.058;27.986;2024-01-10T00:32:51;31.87;;;12.73;;
32826;SDS011;51059;42.058;27.986;2024-01-10T00:35:17;25.60;;;12.13;;
32826;SDS011;51059;42.058;27.986;2024-01-10T00:37:43;28.17;;;12.43;;
32826;SDS011;51059;42.058;27.986;2024-01-10T00:40:09;28.90;;;12.90;;
32826;SDS011;51059;42.058;27.986;2024-01-10T00:42:35;31.67;;;14.63;;
32826;SDS011;51059;42.058;27.986;2024-01-10T00:45:01;33.67;;;14.30;;
32826;SDS011;51059;42.058;27.986;2024-01-10T00:47:27;25.47;;;11.40;;
32826;SDS011;51059;42.058;27.986;2024-01-10T00:49:52;34.37;;;15.27;;
32826;SDS011;51059;42.058;27.986;2024-01-10T00:52:18;26.93;;;12.47;;
32826;SDS011;51059;42.058;27.986;2024-01-10T00:54:45;27.43;;;12.77;;
32826;SDS011;51059;42.058;27.986;2024-01-10T00:57:11;36.57;;;15.57;;
32826;SDS011;51059;42.058;27.986;2024-01-10T00:59:36;33.20;;;14.10;;
32826;SDS011;51059;42.058;27.986;2024-01-10T01:02:03;30.47;;;13.97;;
32826;SDS011;51059;42.058;27.986;2024-01-10T01:04:29;20.60;;;11.60;;
32826;SDS011;51059;42.058;27.986;2024-01-10T01:06:55;28.37;;;13.30;;
32826;SDS011;51059;42.058;27.986;2024-01-10T01:09:21;29.40;;;11.97;;
32826;SDS011;51059;42.058;27.986;2024-01-10T01:11:47;27.23;;;12.33;;
32826;SDS011;51059;42.058;27.986;2024-01-10T01:14:12;33.63;;;14.20;;
32826;SDS011;51059;42.058;27.986;2024-01-10T01:16:40;27.47;;;12.57;;
32826;SDS011;51059;42.058;27.986;2024-01-10T01:19:05;27.83;;;11.93;;
32826;SDS011;51059;42.058;27.986;2024-01-10T01:21:31;28.70;;;12.17;;
32826;SDS011;51059;42.058;27.986;2024-01-10T01:23:56;34.87;;;13.73;;
32826;SDS011;51059;42.058;27.986;2024-01-10T01:28:52;23.57;;;12.50;;
32826;SDS011;51059;42.058;27.986;2024-01-10T01:31:17;34.27;;;13.87;;
32826;SDS011;51059;42.058;27.986;2024-01-10T01:33:43;29.23;;;14.17;;
32826;SDS011;51059;42.058;27.986;2024-01-10T01:36:08;37.57;;;14.97;;
32826;SDS011;51059;42.058;27.986;2024-01-10T01:38:33;35.27;;;14.47;;
32826;SDS011;51059;42.058;27.986;2024-01-10T01:41:00;24.47;;;12.97;;
32826;SDS011;51059;42.058;27.986;2024-01-10T01:43:27;34.77;;;14.03;;
32826;SDS011;51059;42.058;27.986;2024-01-10T01:45:53;37.67;;;17.30;;
32826;SDS011;51059;42.058;27.986;2024-01-10T01:48:22;30.13;;;13.87;;
32826;SDS011;51059;42.058;27.986;2024-01-10T01:50:49;24.90;;;13.63;;
32826;SDS011;51059;42.058;27.986;2024-01-10T01:53:16;24.37;;;12.93;;
32826;SDS011;51059;42.058;27.986;2024-01-10T01:55:44;25.13;;;13.13;;
32826;SDS011;51059;42.058;27.986;2024-01-10T01:58:11;24.30;;;13.37;;
32826;SDS011;51059;42.058;27.986;2024-01-10T02:00:39;28.80;;;14.47;;
32826;SDS011;51059;42.058;27.986;2024-01-10T02:03:05;24.80;;;13.97;;
32826;SDS011;51059;42.058;27.986;2024-01-10T02:05:32;32.23;;;16.07;;
32826;SDS011;51059;42.058;27.986;2024-01-10T02:07:57;29.10;;;14.50;;
32826;SDS011;51059;42.058;27.986;2024-01-10T02:10:23;35.10;;;17.00;;
32826;SDS011;51059;42.058;27.986;2024-01-10T02:12:49;24.27;;;13.80;;
32826;SDS011;51059;42.058;27.986;2024-01-10T02:15:16;30.13;;;15.50;;
32826;SDS011;51059;42.058;27.986;2024-01-10T02:17:42;33.50;;;17.10;;
32826;SDS011;51059;42.058;27.986;2024-01-10T02:20:15;37.03;;;17.03;;
32826;SDS011;51059;42.058;27.986;2024-01-10T02:22:42;28.80;;;15.47;;
32826;SDS011;51059;42.058;27.986;2024-01-10T02:25:11;27.90;;;14.70;;
32826;SDS011;51059;42.058;27.986;2024-01-10T02:27:37;30.77;;;16.53;;
32826;SDS011;51059;42.058;27.986;2024-01-10T02:30:03;27.90;;;15.20;;
32826;SDS011;51059;42.058;27.986;2024-01-10T02:32:29;24.57;;;14.33;;
32826;SDS011;51059;42.058;27.986;2024-01-10T02:34:55;28.57;;;15.20;;
32826;SDS011;51059;42.058;27.986;2024-01-10T02:37:21;30.23;;;15.23;;
32826;SDS011;51059;42.058;27.986;2024-01-10T02:39:47;24.53;;;15.00;;
32826;SDS011;51059;42.058;27.986;2024-01-10T02:42:14;27.30;;;14.90;;
32826;SDS011;51059;42.058;27.986;2024-01-10T02:44:40;24.20;;;13.60;;
32826;SDS011;51059;42.058;27.986;2024-01-10T02:47:06;24.53;;;14.10;;
32826;SDS011;51059;42.058;27.986;2024-01-10T02:49:33;26.37;;;15.00;;
32826;SDS011;51059;42.058;27.986;2024-01-10T02:51:59;25.03;;;14.30;;
32826;SDS011;51059;42.058;27.986;2024-01-10T02:54:25;31.77;;;15.93;;
32826;SDS011;51059;42.058;27.986;2024-01-10T02:56:50;29.00;;;15.50;;
32826;SDS011;51059;42.058;27.986;2024-01-10T02:59:16;21.97;;;14.20;;
32826;SDS011;51059;42.058;27.986;2024-01-10T03:01:43;25.00;;;13.70;;
32826;SDS011;51059;42.058;27.986;2024-01-10T03:04:08;22.30;;;14.17;;
32826;SDS011;51059;42.058;27.986;2024-01-10T03:06:34;24.43;;;12.67;;
32826;SDS011;51059;42.058;27.986;2024-01-10T03:09:01;20.53;;;13.90;;
32826;SDS011;51059;42.058;27.986;2024-01-10T03:11:29;30.03;;;16.03;;
32826;SDS011;51059;42.058;27.986;2024-01-10T03:14:08;28.67;;;15.70;;
32826;SDS011;51059;42.058;27.986;2024-01-10T03:16:35;23.47;;;14.03;;
32826;SDS011;51059;42.058;27.986;2024-01-10T03:19:00;36.60;;;17.30;;
32826;SDS011;51059;42.058;27.986;2024-01-10T03:21:26;25.30;;;14.90;;
32826;SDS011;51059;42.058;27.986;2024-01-10T03:23:59;27.50;;;14.13;;
32826;SDS011;51059;42.058;27.986;2024-01-10T03:26:24;30.27;;;16.93;;
32826;SDS011;51059;42.058;27.986;2024-01-10T03:28:50;25.13;;;15.17;;
32826;SDS011;51059;42.058;27.986;2024-01-10T03:31:16;18.27;;;13.37;;
32826;SDS011;51059;42.058;27.986;2024-01-10T03:33:41;19.93;;;13.90;;
32826;SDS011;51059;42.058;27.986;2024-01-10T03:36:08;20.07;;;14.13;;
32826;SDS011;51059;42.058;27.986;2024-01-10T03:38:34;24.67;;;14.67;;
32826;SDS011;51059;42.058;27.986;2024-01-10T03:41:00;22.70;;;14.70;;
32826;SDS011;51059;42.058;27.986;2024-01-10T03:43:26;22.73;;;14.90;;
32826;SDS011;51059;42.058;27.986;2024-01-10T03:45:52;24.80;;;14.13;;
32826;SDS011;51059;42.058;27.986;2024-01-10T03:48:17;25.10;;;15.77;;
32826;SDS011;51059;42.058;27.986;2024-01-10T03:50:43;22.17;;;15.47;;
32826;SDS011;51059;42.058;27.986;2024-01-10T03:53:09;20.20;;;14.60;;
32826;SDS011;51059;42.058;27.986;2024-01-10T03:55:34;19.87;;;13.20;;
32826;SDS011;51059;42.058;27.986;2024-01-10T04:00:28;24.63;;;14.40;;
32826;SDS011;51059;42.058;27.986;2024-01-10T04:02:55;22.80;;;14.00;;
32826;SDS011;51059;42.058;27.986;2024-01-10T04:05:21;22.07;;;13.50;;
32826;SDS011;51059;42.058;27.986;2024-01-10T04:07:49;17.50;;;12.37;;
32826;SDS011;51059;42.058;27.986;2024-01-10T04:10:15;22.97;;;14.50;;
32826;SDS011;51059;42.058;27.986;2024-01-10T04:12:41;22.20;;;14.50;;
32826;SDS011;51059;42.058;27.986;2024-01-10T04:15:07;20.70;;;14.00;;
32826;SDS011;51059;42.058;27.986;2024-01-10T04:17:33;17.90;;;13.07;;
32826;SDS011;51059;42.058;27.986;2024-01-10T04:19:58;22.27;;;14.37;;
32826;SDS011;51059;42.058;27.986;2024-01-10T04:22:24;21.67;;;14.70;;
32826;SDS011;51059;42.058;27.986;2024-01-10T04:24:50;19.53;;;14.20;;
32826;SDS011;51059;42.058;27.986;2024-01-10T04:27:16;19.80;;;13.93;;
32826;SDS011;51059;42.058;27.986;2024-01-10T04:29:43;25.53;;;14.93;;
32826;SDS011;51059;42.058;27.986;2024-01-10T04:32:09;22.10;;;14.33;;
32826;SDS011;51059;42.058;27.986;2024-01-10T04:34:36;31.63;;;17.00;;
32826;SDS011;51059;42.058;27.986;2024-01-10T04:37:01;24.10;;;14.93;;
32826;SDS011;51059;42.058;27.986;2024-01-10T04:39:28;26.97;;;16.80;;
32826;SDS011;51059;42.058;27.986;2024-01-10T04:41:55;26.57;;;16.67;;
32826;SDS011;51059;42.058;27.986;2024-01-10T04:44:21;25.00;;;15.63;;
32826;SDS011;51059;42.058;27.986;2024-01-10T04:46:46;26.63;;;15.97;;
32826;SDS011;51059;42.058;27.986;2024-01-10T04:49:11;19.87;;;15.37;;
32826;SDS011;51059;42.058;27.986;2024-01-10T04:51:38;28.53;;;16.27;;
32826;SDS011;51059;42.058;27.986;2024-01-10T04:54:04;19.90;;;14.47;;
32826;SDS011;51059;42.058;27.986;2024-01-10T04:56:31;23.60;;;16.00;;
32826;SDS011;51059;42.058;27.986;2024-01-10T04:58:58;24.73;;;17.07;;
32826;SDS011;51059;42.058;27.986;2024-01-10T05:01:23;18.63;;;15.60;;
32826;SDS011;51059;42.058;27.986;2024-01-10T05:03:49;23.83;;;17.30;;
32826;SDS011;51059;42.058;27.986;2024-01-10T05:06:14;26.20;;;17.93;;
32826;SDS011;51059;42.058;27.986;2024-01-10T05:08:41;22.47;;;16.00;;
32826;SDS011;51059;42.058;27.986;2024-01-10T05:11:06;19.13;;;15.23;;
32826;SDS011;51059;42.058;27.986;2024-01-10T05:13:34;30.33;;;17.70;;
32826;SDS011;51059;42.058;27.986;2024-01-10T05:15:59;21.03;;;15.03;;
32826;SDS011;51059;42.058;27.986;2024-01-10T05:18:25;21.17;;;16.63;;
32826;SDS011;51059;42.058;27.986;2024-01-10T05:20:51;25.10;;;15.77;;
32826;SDS011;51059;42.058;27.986;2024-01-10T05:23:18;22.23;;;14.47;;
32826;SDS011;51059;42.058;27.986;2024-01-10T05:25:44;23.50;;;15.23;;
32826;SDS011;51059;42.058;27.986;2024-01-10T05:28:10;21.37;;;14.40;;
32826;SDS011;51059;42.058;27.986;2024-01-10T05:30:37;22.90;;;15.23;;
32826;SDS011;51059;42.058;27.986;2024-01-10T05:33:03;19.77;;;14.43;;
32826;SDS011;51059;42.058;27.986;2024-01-10T05:35:29;27.77;;;15.73;;
32826;SDS011;51059;42.058;27.986;2024-01-10T05:37:55;23.23;;;14.97;;
32826;SDS011;51059;42.058;27.986;2024-01-10T05:40:21;24.20;;;14.87;;
32826;SDS011;51059;42.058;27.986;2024-01-10T05:42:47;18.10;;;13.00;;
32826;SDS011;51059;42.058;27.986;2024-01-10T05:45:13;32.10;;;16.10;;
32826;SDS011;51059;42.058;27.986;2024-01-10T05:47:39;23.07;;;14.53;;
32826;SDS011;51059;42.058;27.986;2024-01-10T05:50:05;21.60;;;13.50;;
32826;SDS011;51059;42.058;27.986;2024-01-10T05:52:34;23.37;;;15.63;;
32826;SDS011;51059;42.058;27.986;2024-01-10T05:55:00;27.57;;;15.67;;
32826;SDS011;51059;42.058;27.986;2024-01-10T05:57:27;23.50;;;14.83;;
32826;SDS011;51059;42.058;27.986;2024-01-10T05:59:53;20.47;;;12.43;;
32826;SDS011;51059;42.058;27.986;2024-01-10T06:02:25;19.33;;;12.30;;
32826;SDS011;51059;42.058;27.986;2024-01-10T06:04:51;16.83;;;11.10;;
32826;SDS011;51059;42.058;27.986;2024-01-10T06:07:16;19.47;;;12.07;;
32826;SDS011;51059;42.058;27.986;2024-01-10T06:09:43;20.40;;;12.73;;
32826;SDS011;51059;42.058;27.986;2024-01-10T06:12:11;16.27;;;11.90;;
32826;SDS011;51059;42.058;27.986;2024-01-10T06:14:38;29.20;;;14.33;;
32826;SDS011;51059;42.058;27.986;2024-01-10T06:17:05;20.53;;;11.40;;
32826;SDS011;51059;42.058;27.986;2024-01-10T06:19:31;17.87;;;11.33;;
32826;SDS011;51059;42.058;27.986;2024-01-10T06:21:57;17.30;;;10.63;;
32826;SDS011;51059;42.058;27.986;2024-01-10T06:24:24;16.73;;;10.23;;
32826;SDS011;51059;42.058;27.986;2024-01-10T06:26:50;18.80;;;10.50;;
32826;SDS011;51059;42.058;27.986;2024-01-10T06:29:16;17.53;;;9.77;;
32826;SDS011;51059;42.058;27.986;2024-01-10T06:31:42;19.53;;;11.97;;
32826;SDS011;51059;42.058;27.986;2024-01-10T06:34:08;16.00;;;10.23;;
32826;SDS011;51059;42.058;27.986;2024-01-10T06:36:34;26.93;;;12.07;;
32826;SDS011;51059;42.058;27.986;2024-01-10T06:38:59;15.97;;;10.60;;
32826;SDS011;51059;42.058;27.986;2024-01-10T06:41:25;14.83;;;10.50;;
32826;SDS011;51059;42.058;27.986;2024-01-10T06:43:51;17.40;;;10.87;;
32826;SDS011;51059;42.058;27.986;2024-01-10T06:46:17;21.13;;;10.80;;
32826;SDS011;51059;42.058;27.986;2024-01-10T06:48:42;18.17;;;10.73;;
32826;SDS011;51059;42.058;27.986;2024-01-10T06:51:14;13.40;;;10.70;;
32826;SDS011;51059;42.058;27.986;2024-01-10T06:53:39;19.67;;;11.67;;
32826;SDS011;51059;42.058;27.986;2024-01-10T06:56:06;25.83;;;12.13;;
32826;SDS011;51059;42.058;27.986;2024-01-10T06:58:31;20.37;;;11.50;;
32826;SDS011;51059;42.058;27.986;2024-01-10T07:00:58;27.97;;;13.70;;
32826;SDS011;51059;42.058;27.986;2024-01-10T07:03:26;20.47;;;11.93;;
32826;SDS011;51059;42.058;27.986;2024-01-10T07:05:51;19.57;;;11.77;;
32826;SDS011;51059;42.058;27.986;2024-01-10T07:08:17;26.77;;;12.10;;
32826;SDS011;51059;42.058;27.986;2024-01-10T07:10:42;17.33;;;11.57;;
32826;SDS011;51059;42.058;27.986;2024-01-10T07:13:09;23.63;;;13.20;;
32826;SDS011;51059;42.058;27.986;2024-01-10T07:15:36;15.77;;;11.27;;
32826;SDS011;51059;42.058;27.986;2024-01-10T07:18:04;21.20;;;11.80;;
32826;SDS011;51059;42.058;27.986;2024-01-10T07:20:31;22.17;;;12.33;;
32826;SDS011;51059;42.058;27.986;2024-01-10T07:22:58;17.57;;;10.63;;
32826;SDS011;51059;42.058;27.986;2024-01-10T07:25:24;20.10;;;11.60;;
32826;SDS011;51059;42.058;27.986;2024-01-10T07:27:54;15.33;;;9.93;;
32826;SDS011;51059;42.058;27.986;2024-01-10T07:30:22;18.20;;;11.20;;
32826;SDS011;51059;42.058;27.986;2024-01-10T07:32:48;16.33;;;10.20;;
32826;SDS011;51059;42.058;27.986;2024-01-10T07:35:15;14.57;;;9.80;;
32826;SDS011;51059;42.058;27.986;2024-01-10T07:37:41;15.70;;;9.50;;
32826;SDS011;51059;42.058;27.986;2024-01-10T07:40:08;18.00;;;9.90;;
32826;SDS011;51059;42.058;27.986;2024-01-10T07:42:36;22.87;;;10.50;;
32826;SDS011;51059;42.058;27.986;2024-01-10T07:45:03;15.17;;;9.00;;
32826;SDS011;51059;42.058;27.986;2024-01-10T07:47:31;17.63;;;9.10;;
32826;SDS011;51059;42.058;27.986;2024-01-10T07:49:59;17.33;;;9.87;;
32826;SDS011;51059;42.058;27.986;2024-01-10T07:52:24;20.57;;;9.33;;
32826;SDS011;51059;42.058;27.986;2024-01-10T07:54:50;17.93;;;10.07;;
32826;SDS011;51059;42.058;27.986;2024-01-10T07:57:15;25.10;;;11.23;;
32826;SDS011;51059;42.058;27.986;2024-01-10T07:59:44;16.67;;;8.33;;
32826;SDS011;51059;42.058;27.986;2024-01-10T08:02:10;16.67;;;8.83;;
32826;SDS011;51059;42.058;27.986;2024-01-10T08:04:37;15.93;;;7.70;;
32826;SDS011;51059;42.058;27.986;2024-01-10T08:07:02;21.70;;;8.53;;
32826;SDS011;51059;42.058;27.986;2024-01-10T08:09:28;18.53;;;8.00;;
32826;SDS011;51059;42.058;27.986;2024-01-10T08:11:54;13.03;;;7.57;;
32826;SDS011;51059;42.058;27.986;2024-01-10T08:14:19;15.47;;;7.50;;
32826;SDS011;51059;42.058;27.986;2024-01-10T08:16:45;15.10;;;6.80;;
32826;SDS011;51059;42.058;27.986;2024-01-10T08:19:10;18.53;;;7.23;;
32826;SDS011;51059;42.058;27.986;2024-01-10T08:21:36;15.43;;;7.17;;
32826;SDS011;51059;42.058;27.986;2024-01-10T08:24:02;12.53;;;6.40;;
32826;SDS011;51059;42.058;27.986;2024-01-10T08:26:28;13.10;;;6.53;;
32826;SDS011;51059;42.058;27.986;2024-01-10T08:28:54;16.50;;;7.83;;
32826;SDS011;51059;42.058;27.986;2024-01-10T08:31:19;17.43;;;6.47;;
32826;SDS011;51059;42.058;27.986;2024-01-10T08:33:46;12.30;;;6.77;;
32826;SDS011;51059;42.058;27.986;2024-01-10T08:36:12;14.27;;;6.60;;
32826;SDS011;51059;42.058;27.986;2024-01-10T08:38:39;17.30;;;6.53;;
32826;SDS011;51059;42.058;27.986;2024-01-10T08:41:07;11.77;;;6.27;;
32826;SDS011;51059;42.058;27.986;2024-01-10T08:43:33;10.97;;;5.63;;
32826;SDS011;51059;42.058;27.986;2024-01-10T08:45:58;11.10;;;6.13;;
32826;SDS011;51059;42.058;27.986;2024-01-10T08:48:24;10.87;;;5.37;;
32826;SDS011;51059;42.058;27.986;2024-01-10T08:50:50;13.17;;;6.33;;
32826;SDS011;51059;42.058;27.986;2024-01-10T08:53:17;8.40;;;5.50;;
32826;SDS011;51059;42.058;27.986;2024-01-10T08:55:45;13.73;;;6.13;;
32826;SDS011;51059;42.058;27.986;2024-01-10T08:58:12;13.23;;;5.67;;
32826;SDS011;51059;42.058;27.986;2024-01-10T09:00:38;11.37;;;6.00;;
32826;SDS011;51059;42.058;27.986;2024-01-10T09:03:03;10.93;;;6.23;;
32826;SDS011;51059;42.058;27.986;2024-01-10T09:05:29;14.53;;;6.53;;
32826;SDS011;51059;42.058;27.986;2024-01-10T09:07:54;12.27;;;6.47;;
32826;SDS011;51059;42.058;27.986;2024-01-10T09:10:20;8.13;;;5.17;;
32826;SDS011;51059;42.058;27.986;2024-01-10T09:12:48;12.27;;;5.73;;
32826;SDS011;51059;42.058;27.986;2024-01-10T09:15:16;8.97;;;5.23;;
32826;SDS011;51059;42.058;27.986;2024-01-10T09:17:42;13.07;;;6.20;;
32826;SDS011;51059;42.058;27.986;2024-01-10T09:20:07;15.60;;;7.43;;
32826;SDS011;51059;42.058;27.986;2024-01-10T09:22:34;15.07;;;6.70;;
32826;SDS011;51059;42.058;27.986;2024-01-10T09:25:00;14.80;;;6.70;;
32826;SDS011;51059;42.058;27.986;2024-01-10T09:27:32;18.27;;;7.97;;
32826;SDS011;51059;42.058;27.986;2024-01-10T09:30:02;8.83;;;5.63;;
32826;SDS011;51059;42.058;27.986;2024-01-10T09:32:28;8.40;;;5.40;;
32826;SDS011;51059;42.058;27.986;2024-01-10T09:34:55;12.80;;;6.63;;
32826;SDS011;51059;42.058;27.986;2024-01-10T09:37:22;14.57;;;6.47;;
32826;SDS011;51059;42.058;27.986;2024-01-10T09:39:49;15.47;;;6.73;;
32826;SDS011;51059;42.058;27.986;2024-01-10T09:42:16;16.97;;;6.10;;
32826;SDS011;51059;42.058;27.986;2024-01-10T09:44:41;9.30;;;5.47;;
32826;SDS011;51059;42.058;27.986;2024-01-10T09:47:07;10.67;;;6.20;;
32826;SDS011;51059;42.058;27.986;2024-01-10T09:49:32;12.27;;;5.87;;
32826;SDS011;51059;42.058;27.986;2024-01-10T09:51:59;10.73;;;6.10;;
32826;SDS011;51059;42.058;27.986;2024-01-10T09:54:31;16.57;;;7.07;;
32826;SDS011;51059;42.058;27.986;2024-01-10T09:57:10;12.67;;;6.33;;
32826;SDS011;51059;42.058;27.986;2024-01-10T09:59:35;13.40;;;6.60;;
32826;SDS011;51059;42.058;27.986;2024-01-10T10:02:01;12.67;;;6.80;;
32826;SDS011;51059;42.058;27.986;2024-01-10T10:04:29;10.53;;;6.07;;
32826;SDS011;51059;42.058;27.986;2024-01-10T10:07:00;11.50;;;6.10;;
32826;SDS011;51059;42.058;27.986;2024-01-10T10:09:31;13.20;;;6.13;;
32826;SDS011;51059;42.058;27.986;2024-01-10T10:11:56;13.77;;;7.17;;
32826;SDS011;51059;42.058;27.986;2024-01-10T10:14:28;14.13;;;6.13;;
32826;SDS011;51059;42.058;27.986;2024-01-10T10:16:53;10.97;;;6.33;;
32826;SDS011;51059;42.058;27.986;2024-01-10T10:19:22;11.00;;;6.53;;
32826;SDS011;51059;42.058;27.986;2024-01-10T10:21:48;13.33;;;6.33;;
32826;SDS011;51059;42.058;27.986;2024-01-10T10:24:14;13.80;;;6.23;;
32826;SDS011;51059;42.058;27.986;2024-01-10T10:26:40;12.73;;;5.40;;
32826;SDS011;51059;42.058;27.986;2024-01-10T10:29:06;17.70;;;6.07;;
32826;SDS011;51059;42.058;27.986;2024-01-10T10:31:32;10.20;;;5.80;;
32826;SDS011;51059;42.058;27.986;2024-01-10T10:34:01;9.83;;;5.80;;
32826;SDS011;51059;42.058;27.986;2024-01-10T10:36:29;14.20;;;5.90;;
32826;SDS011;51059;42.058;27.986;2024-01-10T10:38:56;8.77;;;6.20;;
32826;SDS011;51059;42.058;27.986;2024-01-10T10:41:24;11.00;;;6.30;;
32826;SDS011;51059;42.058;27.986;2024-01-10T10:43:51;9.10;;;5.83;;
32826;SDS011;51059;42.058;27.986;2024-01-10T10:46:19;9.83;;;6.07;;
32826;SDS011;51059;42.058;27.986;2024-01-10T10:48:47;14.90;;;6.33;;
32826;SDS011;51059;42.058;27.986;2024-01-10T10:51:26;8.20;;;6.10;;
32826;SDS011;51059;42.058;27.986;2024-01-10T10:53:53;10.40;;;6.67;;
32826;SDS011;51059;42.058;27.986;2024-01-10T10:56:20;11.87;;;6.63;;
32826;SDS011;51059;42.058;27.986;2024-01-10T10:58:47;12.17;;;6.40;;
32826;SDS011;51059;42.058;27.986;2024-01-10T11:01:14;10.50;;;6.40;;
32826;SDS011;51059;42.058;27.986;2024-01-10T11:03:40;13.40;;;6.50;;
32826;SDS011;51059;42.058;27.986;2024-01-10T11:06:10;12.17;;;6.13;;
32826;SDS011;51059;42.058;27.986;2024-01-10T11:08:36;12.37;;;6.67;;
32826;SDS011;51059;42.058;27.986;2024-01-10T11:11:04;18.47;;;7.50;;
32826;SDS011;51059;42.058;27.986;2024-01-10T11:21:21;10.53;;;7.00;;
32826;SDS011;51059;42.058;27.986;2024-01-10T11:23:51;9.53;;;6.70;;
32826;SDS011;51059;42.058;27.986;2024-01-10T11:26:19;10.37;;;6.97;;
32826;SDS011;51059;42.058;27.986;2024-01-10T11:28:45;12.47;;;7.10;;
32826;SDS011;51059;42.058;27.986;2024-01-10T11:31:12;17.60;;;6.83;;
32826;SDS011;51059;42.058;27.986;2024-01-10T11:33:39;11.63;;;6.60;;
32826;SDS011;51059;42.058;27.986;2024-01-10T11:36:19;9.70;;;6.57;;
32826;SDS011;51059;42.058;27.986;2024-01-10T11:44:33;11.63;;;6.40;;
32826;SDS011;51059;42.058;27.986;2024-01-10T11:46:45;11.93;;;6.63;;
32826;SDS011;51059;42.058;27.986;2024-01-10T11:49:12;7.90;;;5.97;;
32826;SDS011;51059;42.058;27.986;2024-01-10T11:51:44;16.40;;;6.53;;
32826;SDS011;51059;42.058;27.986;2024-01-10T11:54:10;8.67;;;6.07;;
32826;SDS011;51059;42.058;27.986;2024-01-10T11:56:39;8.10;;;6.10;;
32826;SDS011;51059;42.058;27.986;2024-01-10T11:59:06;11.87;;;6.50;;
32826;SDS011;51059;42.058;27.986;2024-01-10T12:01:37;10.60;;;6.27;;
32826;SDS011;51059;42.058;27.986;2024-01-10T12:04:03;8.93;;;5.80;;
32826;SDS011;51059;42.058;27.986;2024-01-10T12:06:32;15.60;;;6.90;;
32826;SDS011;51059;42.058;27.986;2024-01-10T12:08:58;9.20;;;6.27;;
32826;SDS011;51059;42.058;27.986;2024-01-10T12:11:24;10.33;;;6.87;;
32826;SDS011;51059;42.058;27.986;2024-01-10T12:13:51;13.93;;;7.00;;
32826;SDS011;51059;42.058;27.986;2024-01-10T12:16:17;15.70;;;7.07;;
32826;SDS011;51059;42.058;27.986;2024-01-10T12:18:43;12.63;;;6.60;;
32826;SDS011;51059;42.058;27.986;2024-01-10T12:21:10;11.03;;;7.20;;
32826;SDS011;51059;42.058;27.986;2024-01-10T12:23:37;10.53;;;7.00;;
32826;SDS011;51059;42.058;27.986;2024-01-10T12:26:08;12.67;;;7.27;;
32826;SDS011;51059;42.058;27.986;2024-01-10T12:28:37;9.37;;;6.23;;
32826;SDS011;51059;42.058;27.986;2024-01-10T12:31:04;13.10;;;8.07;;
32826;SDS011;51059;42.058;27.986;2024-01-10T12:33:36;12.80;;;8.30;;
32826;SDS011;51059;42.058;27.986;2024-01-10T12:36:06;10.57;;;7.03;;
32826;SDS011;51059;42.058;27.986;2024-01-10T12:38:32;10.63;;;7.70;;
32826;SDS011;51059;42.058;27.986;2024-01-10T12:40:59;12.03;;;7.77;;
32826;SDS011;51059;42.058;27.986;2024-01-10T12:43:26;11.17;;;7.73;;
32826;SDS011;51059;42.058;27.986;2024-01-10T12:48:30;13.67;;;7.73;;
32826;SDS011;51059;42.058;27.986;2024-01-10T12:50:55;11.50;;;7.37;;
32826;SDS011;51059;42.058;27.986;2024-01-10T12:53:21;13.70;;;8.50;;
32826;SDS011;51059;42.058;27.986;2024-01-10T12:55:48;13.57;;;8.43;;
32826;SDS011;51059;42.058;27.986;2024-01-10T12:58:14;10.73;;;7.90;;
32826;SDS011;51059;42.058;27.986;2024-01-10T13:00:39;10.90;;;7.63;;
32826;SDS011;51059;42.058;27.986;2024-01-10T13:03:05;16.87;;;8.60;;
32826;SDS011;51059;42.058;27.986;2024-01-10T13:05:31;14.03;;;8.40;;
32826;SDS011;51059;42.058;27.986;2024-01-10T13:07:57;14.70;;;8.10;;
32826;SDS011;51059;42.058;27.986;2024-01-10T13:10:22;10.13;;;7.73;;
32826;SDS011;51059;42.058;27.986;2024-01-10T13:12:48;12.50;;;8.10;;
32826;SDS011;51059;42.058;27.986;2024-01-10T13:15:14;12.43;;;8.50;;
32826;SDS011;51059;42.058;27.986;2024-01-10T13:17:39;13.10;;;8.67;;
32826;SDS011;51059;42.058;27.986;2024-01-10T13:20:05;13.27;;;8.77;;
32826;SDS011;51059;42.058;27.986;2024-01-10T13:22:31;11.57;;;7.60;;
32826;SDS011;51059;42.058;27.986;2024-01-10T13:24:57;10.00;;;7.73;;
32826;SDS011;51059;42.058;27.986;2024-01-10T13:27:23;10.83;;;7.57;;
32826;SDS011;51059;42.058;27.986;2024-01-10T13:29:49;13.00;;;8.70;;
32826;SDS011;51059;42.058;27.986;2024-01-10T13:32:15;14.50;;;8.50;;
32826;SDS011;51059;42.058;27.986;2024-01-10T13:34:41;11.43;;;7.70;;
32826;SDS011;51059;42.058;27.986;2024-01-10T13:37:06;9.17;;;7.60;;
32826;SDS011;51059;42.058;27.986;2024-01-10T13:39:34;12.20;;;7.97;;
32826;SDS011;51059;42.058;27.986;2024-01-10T13:42:00;9.87;;;7.90;;
32826;SDS011;51059;42.058;27.986;2024-01-10T13:44:25;12.87;;;8.60;;
32826;SDS011;51059;42.058;27.986;2024-01-10T13:46:52;12.03;;;8.37;;
32826;SDS011;51059;42.058;27.986;2024-01-10T13:49:18;10.83;;;8.33;;
32826;SDS011;51059;42.058;27.986;2024-01-10T13:51:44;12.27;;;8.27;;
32826;SDS011;51059;42.058;27.986;2024-01-10T13:54:10;12.33;;;8.60;;
32826;SDS011;51059;42.058;27.986;2024-01-10T13:56:36;13.97;;;7.97;;
32826;SDS011;51059;42.058;27.986;2024-01-10T13:59:04;11.80;;;8.03;;
32826;SDS011;51059;42.058;27.986;2024-01-10T14:01:30;12.03;;;8.70;;
32826;SDS011;51059;42.058;27.986;2024-01-10T14:03:56;15.70;;;8.90;;
32826;SDS011;51059;42.058;27.986;2024-01-10T14:06:22;11.10;;;8.87;;
32826;SDS011;51059;42.058;27.986;2024-01-10T14:08:48;12.47;;;8.50;;
32826;SDS011;51059;42.058;27.986;2024-01-10T14:11:15;10.47;;;8.40;;
32826;SDS011;51059;42.058;27.986;2024-01-10T14:13:41;12.73;;;8.20;;
32826;SDS011;51059;42.058;27.986;2024-01-10T14:16:07;12.03;;;8.07;;
32826;SDS011;51059;42.058;27.986;2024-01-10T14:18:32;11.33;;;8.13;;
32826;SDS011;51059;42.058;27.986;2024-01-10T14:20:59;11.40;;;8.63;;
32826;SDS011;51059;42.058;27.986;2024-01-10T14:23:24;13.43;;;8.60;;
32826;SDS011;51059;42.058;27.986;2024-01-10T14:25:50;11.67;;;8.33;;
32826;SDS011;51059;42.058;27.986;2024-01-10T14:28:19;12.70;;;8.97;;
32826;SDS011;51059;42.058;27.986;2024-01-10T14:30:46;12.73;;;9.40;;
32826;SDS011;51059;42.058;27.986;2024-01-10T14:33:11;13.40;;;8.20;;